Time;durP1;ratioP1;P1;durP2;ratioP2;P2;SDS_P1;SDS_P2;PMS_P1;PMS_P2;Temp;Humidity;BMP_temperature;BMP_pressure;BME280_temperature;BME280_humidity;BME280_pressure;Samples;Min_cycle;Max_cycle;Signal;HPM_P1;HPM_P2
2022/10/19 00:01:39;;;;;;;10.03;9.03;;;16.60;99.90;;;;;;5073093;28;20247;-76
2022/10/19 00:04:05;;;;;;;12.10;8.83;;;16.50;99.90;;;;;;5073091;28;20272;-76
2022/10/19 00:06:33;;;;;;;11.83;7.97;;;16.40;99.90;;;;;;5078506;28;20201;-76
2022/10/19 00:09:02;;;;;;;13.63;8.70;;;16.30;99.90;;;;;;5103389;28;20179;-74
2022/10/19 00:11:28;;;;;;;12.47;8.87;;;16.30;99.90;;;;;;5113429;28;20453;-76
2022/10/19 00:13:55;;;;;;;11.50;8.70;;;16.20;99.90;;;;;;5095350;28;20786;-75
2022/10/19 00:16:22;;;;;;;11.37;8.53;;;16.10;99.90;;;;;;5113413;28;20429;-75
2022/10/19 00:18:48;;;;;;;9.30;8.40;;;16.00;99.90;;;;;;5113457;28;20466;-74
2022/10/19 00:21:16;;;;;;;10.97;9.53;;;16.00;99.90;;;;;;5113468;28;20444;-75
2022/10/19 00:23:42;;;;;;;9.47;8.47;;;16.00;99.90;;;;;;5094920;28;20174;-75
2022/10/19 00:26:08;;;;;;;16.83;9.97;;;16.00;99.90;;;;;;5113361;28;20475;-75
2022/10/19 00:28:34;;;;;;;12.37;10.50;;;15.90;99.90;;;;;;5113623;28;20394;-75
2022/10/19 00:31:16;;;;;;;12.77;9.80;;;15.90;99.90;;;;;;5113371;28;20172;-76
2022/10/19 00:33:45;;;;;;;10.20;7.80;;;15.90;99.90;;;;;;5113693;28;20423;-75
2022/10/19 00:36:16;;;;;;;12.23;9.30;;;15.90;99.90;;;;;;5095152;28;20431;-75
2022/10/19 00:38:42;;;;;;;10.70;9.60;;;15.90;99.90;;;;;;5111850;28;20427;-76
2022/10/19 00:41:07;;;;;;;9.47;8.50;;;16.00;99.90;;;;;;5098026;28;20456;-76
2022/10/19 00:43:54;;;;;;;11.13;9.23;;;15.90;99.90;;;;;;5117829;28;20167;-74
2022/10/19 00:46:20;;;;;;;11.63;9.20;;;15.90;99.90;;;;;;5117344;28;20184;-75
2022/10/19 00:48:45;;;;;;;13.00;9.50;;;15.90;99.90;;;;;;5117658;28;20471;-75
2022/10/19 00:51:12;;;;;;;14.13;10.37;;;15.90;99.90;;;;;;5098669;28;20406;-75
2022/10/19 00:53:38;;;;;;;11.90;9.70;;;15.90;99.90;;;;;;5098168;28;20173;-75
2022/10/19 00:56:08;;;;;;;11.03;9.00;;;16.00;99.90;;;;;;5116710;28;20844;-74
2022/10/19 00:58:34;;;;;;;11.70;9.77;;;15.90;99.90;;;;;;5117001;28;20149;-75
2022/10/19 01:01:03;;;;;;;10.23;8.93;;;15.80;99.90;;;;;;5116773;28;20499;-75
2022/10/19 01:03:29;;;;;;;17.00;9.60;;;15.80;99.90;;;;;;5117035;28;20658;-75
2022/10/19 01:05:55;;;;;;;14.43;9.90;;;15.80;99.90;;;;;;5116377;28;20444;-75
2022/10/19 01:08:21;;;;;;;12.37;9.20;;;15.90;99.90;;;;;;5097927;28;20169;-74
2022/10/19 01:10:53;;;;;;;11.23;9.30;;;16.00;99.90;;;;;;5116532;28;20168;-75
2022/10/19 01:13:35;;;;;;;9.70;8.70;;;16.20;99.90;;;;;;5116511;28;20394;-75
2022/10/19 01:16:09;;;;;;;13.30;9.83;;;16.20;99.90;;;;;;5116666;28;20424;-76
2022/10/19 01:18:49;;;;;;;16.90;13.37;;;16.40;99.90;;;;;;5116526;28;20386;-75
2022/10/19 01:21:28;;;;;;;13.60;12.10;;;16.50;99.90;;;;;;5097961;28;20437;-76
2022/10/19 01:24:18;;;;;;;14.03;12.20;;;16.60;99.90;;;;;;5116174;28;20397;-75
2022/10/19 01:27:09;;;;;;;15.10;13.20;;;16.70;99.90;;;;;;5116099;28;20411;-75
2022/10/19 01:30:00;;;;;;;14.73;12.87;;;16.70;99.90;;;;;;5116489;28;20379;-75
2022/10/19 01:32:39;;;;;;;14.60;12.87;;;16.80;99.90;;;;;;5116476;28;20370;-75
2022/10/19 01:35:37;;;;;;;17.47;13.20;;;16.80;99.90;;;;;;5116530;28;20374;-76
2022/10/19 01:38:05;;;;;;;14.43;12.80;;;16.90;99.90;;;;;;5114954;28;20422;-74
2022/10/19 01:40:49;;;;;;;17.80;13.13;;;16.90;99.90;;;;;;5075247;28;20444;-76
2022/10/19 01:43:21;;;;;;;18.20;13.30;;;17.00;99.90;;;;;;5075612;28;20483;-76
2022/10/19 01:45:51;;;;;;;16.50;13.93;;;17.00;99.90;;;;;;5075419;28;20419;-75
2022/10/19 01:48:25;;;;;;;17.23;13.73;;;17.10;99.90;;;;;;5057355;28;20495;-76
2022/10/19 01:51:15;;;;;;;16.30;12.90;;;17.10;99.90;;;;;;5077727;28;20517;-76
2022/10/19 01:53:46;;;;;;;16.30;13.83;;;17.20;99.90;;;;;;5056707;28;20399;-76
2022/10/19 01:56:13;;;;;;;16.37;13.50;;;17.20;99.90;;;;;;5075305;28;20449;-75
2022/10/19 01:58:43;;;;;;;22.93;16.10;;;17.10;99.90;;;;;;5075384;28;20479;-75
2022/10/19 02:01:11;;;;;;;22.83;16.30;;;17.10;99.90;;;;;;5056806;28;20531;-75
2022/10/19 02:03:38;;;;;;;19.30;14.30;;;17.10;99.90;;;;;;5075286;28;20412;-75
2022/10/19 02:06:06;;;;;;;25.30;16.53;;;17.10;99.90;;;;;;5074821;28;20471;-75
2022/10/19 02:08:39;;;;;;;26.47;18.30;;;17.10;99.90;;;;;;5082154;28;20410;-74
2022/10/19 02:11:05;;;;;;;27.30;16.90;;;16.60;99.90;;;;;;5114292;28;20529;-75
2022/10/19 02:13:32;;;;;;;33.73;19.80;;;16.60;99.90;;;;;;5115343;28;20933;-75
2022/10/19 02:16:00;;;;;;;33.73;18.80;;;16.70;99.90;;;;;;5115357;28;20436;-75
2022/10/19 02:18:39;;;;;;;25.97;17.93;;;16.80;99.90;;;;;;5115327;28;20403;-76
2022/10/19 02:21:06;;;;;;;23.43;17.00;;;17.00;99.90;;;;;;5115232;28;20444;-76
2022/10/19 02:23:31;;;;;;;28.53;18.77;;;17.10;99.90;;;;;;5115206;28;20425;-76
2022/10/19 02:25:57;;;;;;;26.80;18.40;;;17.20;99.90;;;;;;5096854;28;20418;-74
2022/10/19 02:28:24;;;;;;;31.97;20.10;;;17.20;99.90;;;;;;5115180;28;20169;-76
2022/10/19 02:30:49;;;;;;;26.90;19.00;;;17.20;99.90;;;;;;5115090;28;20407;-76
2022/10/19 02:33:15;;;;;;;30.13;20.17;;;17.20;99.90;;;;;;5115618;28;20771;-76
2022/10/19 02:35:41;;;;;;;24.63;17.63;;;17.20;99.90;;;;;;5096733;28;20634;-76
2022/10/19 02:38:10;;;;;;;33.20;20.43;;;17.30;99.90;;;;;;5096647;28;20260;-75
2022/10/19 02:40:40;;;;;;;30.40;18.90;;;17.30;99.90;;;;;;5094825;28;20891;-77
2022/10/19 02:43:11;;;;;;;36.63;22.03;;;17.30;99.90;;;;;;5115453;28;20391;-75
2022/10/19 02:45:45;;;;;;;35.50;22.50;;;17.40;99.90;;;;;;5114967;28;20472;-75
2022/10/19 02:48:17;;;;;;;33.63;22.83;;;17.40;99.90;;;;;;5115346;28;20888;-76
2022/10/19 02:50:46;;;;;;;30.27;19.37;;;17.30;99.90;;;;;;5114740;28;20427;-76
2022/10/19 02:53:12;;;;;;;27.87;16.57;;;17.10;99.90;;;;;;5114765;28;20406;-75
2022/10/19 02:55:38;;;;;;;26.77;16.43;;;16.90;99.90;;;;;;5114088;28;20491;-76
2022/10/19 02:58:03;;;;;;;31.87;17.50;;;16.90;99.90;;;;;;5107282;28;20430;-75
2022/10/19 03:00:29;;;;;;;34.00;17.47;;;17.00;99.90;;;;;;5082705;28;20289;-76
2022/10/19 03:02:54;;;;;;;28.30;14.90;;;17.00;99.90;;;;;;5073160;28;20173;-76
2022/10/19 03:05:20;;;;;;;17.63;12.93;;;16.90;99.90;;;;;;5073568;28;20170;-76
2022/10/19 03:07:45;;;;;;;30.83;16.43;;;16.60;99.90;;;;;;5074120;28;20201;-75
2022/10/19 03:10:11;;;;;;;22.60;15.10;;;16.70;99.90;;;;;;5105708;28;20180;-77
2022/10/19 03:12:36;;;;;;;28.07;17.10;;;16.80;99.90;;;;;;5114561;28;20176;-75
2022/10/19 03:15:02;;;;;;;24.90;15.60;;;16.80;99.90;;;;;;5095987;28;20512;-76
2022/10/19 03:17:28;;;;;;;27.43;17.13;;;16.60;99.90;;;;;;5114023;28;20237;-75
2022/10/19 03:19:53;;;;;;;30.40;17.67;;;16.70;99.90;;;;;;5114317;28;20485;-76
2022/10/19 03:22:19;;;;;;;24.43;15.17;;;16.80;99.90;;;;;;5114338;28;20199;-76
2022/10/19 03:24:45;;;;;;;27.37;15.13;;;17.00;99.90;;;;;;5113755;28;20172;-76
2022/10/19 03:27:10;;;;;;;31.60;20.50;;;17.00;99.90;;;;;;5114377;28;20188;-76
2022/10/19 03:29:36;;;;;;;25.50;16.93;;;17.00;99.90;;;;;;5114150;28;20175;-76
2022/10/19 03:32:01;;;;;;;27.40;17.47;;;16.90;99.90;;;;;;5114241;28;20553;-75
2022/10/19 03:34:27;;;;;;;32.80;19.30;;;16.80;99.90;;;;;;5114078;28;20165;-76
2022/10/19 03:36:53;;;;;;;27.97;17.70;;;16.80;99.90;;;;;;5114109;28;20718;-75
2022/10/19 03:39:18;;;;;;;26.20;16.13;;;16.90;99.90;;;;;;5112494;28;20540;-76
2022/10/19 03:41:44;;;;;;;31.80;20.53;;;16.90;99.90;;;;;;5087921;28;20185;-76
2022/10/19 03:44:10;;;;;;;33.63;19.20;;;17.00;99.90;;;;;;5094628;28;20177;-76
2022/10/19 03:46:36;;;;;;;30.20;18.30;;;17.10;99.90;;;;;;5093671;28;20435;-75
2022/10/19 03:49:03;;;;;;;36.20;19.13;;;17.10;99.90;;;;;;5093649;28;20185;-76
2022/10/19 03:51:30;;;;;;;27.90;18.70;;;17.00;99.90;;;;;;5093559;28;20407;-76
2022/10/19 03:54:05;;;;;;;21.53;15.37;;;17.10;99.90;;;;;;5093685;28;20451;-74
2022/10/19 03:56:31;;;;;;;22.83;15.43;;;17.10;99.90;;;;;;5093197;28;20475;-74
2022/10/19 03:58:59;;;;;;;30.67;19.70;;;17.10;99.90;;;;;;5093423;28;20415;-75
2022/10/19 04:01:28;;;;;;;22.37;15.93;;;17.20;99.90;;;;;;5093149;28;20530;-76
2022/10/19 04:03:56;;;;;;;24.27;16.10;;;17.20;99.90;;;;;;5093378;28;20410;-75
2022/10/19 04:06:31;;;;;;;21.27;15.83;;;17.20;99.90;;;;;;5112182;22;20498;-75
2022/10/19 04:08:57;;;;;;;29.37;17.87;;;17.20;99.90;;;;;;5109045;28;20475;-74
2022/10/19 04:11:25;;;;;;;24.30;17.20;;;17.20;99.90;;;;;;5112563;28;20485;-73
2022/10/19 04:13:52;;;;;;;26.03;18.03;;;17.20;99.90;;;;;;5113129;28;20813;-73
2022/10/19 04:16:19;;;;;;;23.30;15.90;;;17.20;99.90;;;;;;5116129;28;20506;-74
2022/10/19 04:18:44;;;;;;;28.93;18.70;;;17.20;99.90;;;;;;5116778;28;20398;-74
2022/10/19 04:21:43;;;;;;;28.77;18.20;;;17.20;99.90;;;;;;5116407;28;20507;-74
2022/10/19 04:24:12;;;;;;;24.60;17.37;;;17.20;99.90;;;;;;5061603;28;20196;-73
2022/10/19 04:26:41;;;;;;;22.23;14.60;;;17.20;99.90;;;;;;5116795;28;21027;-73
2022/10/19 04:29:07;;;;;;;24.33;17.40;;;17.20;99.90;;;;;;5098189;28;20463;-73
2022/10/19 04:31:32;;;;;;;20.77;14.97;;;17.20;99.90;;;;;;5116722;28;20900;-74
2022/10/19 04:33:58;;;;;;;25.10;16.97;;;17.20;99.90;;;;;;5116391;28;20161;-74
2022/10/19 04:36:23;;;;;;;26.03;16.30;;;17.20;99.90;;;;;;5116381;28;20232;-74
2022/10/19 04:38:49;;;;;;;25.67;17.23;;;17.20;99.90;;;;;;5115909;28;20182;-73
2022/10/19 04:41:18;;;;;;;26.30;17.30;;;17.20;99.90;;;;;;5097755;28;20239;-73
2022/10/19 04:43:46;;;;;;;26.90;17.63;;;17.20;99.90;;;;;;5096194;28;20157;-73
2022/10/19 04:46:15;;;;;;;21.00;15.13;;;17.20;99.90;;;;;;5095711;28;20476;-73
2022/10/19 04:48:41;;;;;;;29.90;17.77;;;17.30;99.90;;;;;;5095891;28;20403;-74
2022/10/19 04:51:07;;;;;;;21.80;16.47;;;17.30;99.90;;;;;;5077672;28;20459;-74
2022/10/19 04:53:33;;;;;;;24.90;16.50;;;17.30;99.90;;;;;;5095739;28;20488;-73
2022/10/19 04:56:02;;;;;;;26.10;17.30;;;17.20;99.90;;;;;;5095158;28;20399;-73
2022/10/19 04:58:28;;;;;;;26.43;18.10;;;17.30;99.90;;;;;;5095434;28;20418;-73
2022/10/19 05:00:53;;;;;;;29.63;19.47;;;17.30;99.90;;;;;;5095345;28;20435;-73
2022/10/19 05:03:19;;;;;;;22.70;17.30;;;17.30;99.90;;;;;;5095469;28;20169;-73
2022/10/19 05:05:45;;;;;;;22.00;16.60;;;17.30;99.90;;;;;;5095600;28;20193;-73
2022/10/19 05:08:10;;;;;;;20.33;15.77;;;17.30;99.90;;;;;;5095665;28;20268;-73
2022/10/19 05:10:36;;;;;;;19.80;15.37;;;17.40;99.90;;;;;;5106105;28;20542;-74
2022/10/19 05:13:02;;;;;;;20.97;15.20;;;17.30;99.90;;;;;;5115681;28;20567;-73
2022/10/19 05:15:28;;;;;;;24.43;17.83;;;17.40;99.90;;;;;;5097288;28;20169;-73
2022/10/19 05:17:55;;;;;;;20.00;14.80;;;17.40;99.90;;;;;;5115382;28;20188;-74
2022/10/19 05:20:21;;;;;;;19.20;15.80;;;17.40;99.90;;;;;;5116051;28;20465;-74
2022/10/19 05:22:46;;;;;;;21.07;16.10;;;17.50;99.90;;;;;;5115381;28;20398;-74
2022/10/19 05:25:12;;;;;;;28.10;19.90;;;17.50;99.90;;;;;;5114514;28;20747;-74
2022/10/19 05:27:37;;;;;;;26.13;19.80;;;17.30;99.90;;;;;;5113196;28;20197;-74
2022/10/19 05:30:05;;;;;;;17.40;15.60;;;17.40;99.90;;;;;;5115240;28;20371;-71
2022/10/19 05:32:31;;;;;;;22.47;19.83;;;17.40;99.90;;;;;;5114914;28;20219;-72
2022/10/19 05:34:57;;;;;;;22.43;19.23;;;17.30;99.90;;;;;;5114964;28;20434;-72
2022/10/19 05:37:24;;;;;;;25.57;21.33;;;17.20;99.90;;;;;;5115101;28;20232;-72
2022/10/19 05:39:50;;;;;;;26.27;21.57;;;17.10;99.90;;;;;;5113304;28;20425;-72
2022/10/19 05:42:15;;;;;;;27.83;23.30;;;17.00;99.90;;;;;;5107518;28;20756;-72
2022/10/19 05:44:41;;;;;;;27.53;22.47;;;16.80;99.90;;;;;;5094865;28;20161;-71
2022/10/19 05:47:06;;;;;;;22.43;19.37;;;16.70;99.90;;;;;;5094455;28;20186;-72
2022/10/19 05:49:32;;;;;;;20.90;17.80;;;16.80;99.90;;;;;;5076812;28;20168;-72
2022/10/19 05:51:57;;;;;;;20.57;18.13;;;16.90;99.90;;;;;;5086824;28;20232;-72
2022/10/19 05:54:23;;;;;;;26.83;20.80;;;17.00;99.90;;;;;;5090695;28;20183;-72
2022/10/19 05:56:49;;;;;;;21.00;18.00;;;17.00;99.90;;;;;;5094028;28;20193;-73
2022/10/19 05:59:17;;;;;;;24.90;18.37;;;16.80;99.90;;;;;;5094665;28;20542;-73
2022/10/19 06:01:43;;;;;;;26.73;21.57;;;16.70;99.90;;;;;;5076369;28;20736;-73
2022/10/19 06:04:09;;;;;;;22.53;19.30;;;16.70;99.90;;;;;;5094479;28;20495;-72
2022/10/19 06:06:35;;;;;;;23.87;19.50;;;16.60;99.90;;;;;;5094278;28;20574;-73
2022/10/19 06:09:01;;;;;;;21.07;18.60;;;16.50;99.90;;;;;;5093686;28;20403;-73
2022/10/19 06:11:30;;;;;;;18.67;16.70;;;16.40;99.90;;;;;;5111141;28;20481;-73
2022/10/19 06:13:58;;;;;;;23.50;17.07;;;16.30;99.90;;;;;;5114420;28;20729;-73
2022/10/19 06:16:25;;;;;;;18.60;15.30;;;16.30;99.90;;;;;;5114151;28;20431;-72
2022/10/19 06:18:55;;;;;;;17.80;16.00;;;16.40;99.90;;;;;;5114178;28;20440;-72
2022/10/19 06:21:23;;;;;;;20.00;17.90;;;16.50;99.90;;;;;;5114078;28;20453;-72
2022/10/19 06:24:08;;;;;;;17.87;15.83;;;16.50;99.90;;;;;;5114043;28;20905;-72
2022/10/19 06:26:34;;;;;;;21.30;18.30;;;16.60;99.90;;;;;;5113382;28;20489;-72
2022/10/19 06:29:01;;;;;;;18.27;16.13;;;16.60;99.90;;;;;;5113832;28;20996;-74
2022/10/19 06:31:31;;;;;;;21.33;17.60;;;16.50;99.90;;;;;;5113860;28;20326;-73
2022/10/19 06:33:57;;;;;;;17.80;15.23;;;16.30;99.90;;;;;;5114069;28;20498;-74
2022/10/19 06:36:26;;;;;;;17.40;15.60;;;16.20;99.90;;;;;;5113427;28;20446;-73
2022/10/19 06:38:52;;;;;;;16.30;14.50;;;16.20;99.90;;;;;;5112995;28;20179;-74
2022/10/19 06:41:18;;;;;;;17.20;14.13;;;16.30;99.90;;;;;;5093350;28;20593;-74
2022/10/19 06:43:48;;;;;;;17.17;14.07;;;16.60;99.90;;;;;;5113673;28;20490;-72
2022/10/19 06:46:19;;;;;;;14.67;13.10;;;16.60;99.90;;;;;;5113579;28;20415;-73
2022/10/19 06:48:49;;;;;;;14.10;12.70;;;16.80;99.90;;;;;;5113310;28;20936;-73
2022/10/19 06:51:15;;;;;;;17.73;15.40;;;17.00;99.90;;;;;;5095454;28;20972;-73
2022/10/19 06:53:41;;;;;;;16.03;14.13;;;17.10;99.90;;;;;;5113502;28;20448;-71
2022/10/19 06:56:07;;;;;;;15.43;13.83;;;17.20;99.90;;;;;;5112851;28;20211;-72
2022/10/19 06:58:37;;;;;;;14.27;12.77;;;17.30;99.90;;;;;;5113354;28;20611;-72
2022/10/19 07:01:05;;;;;;;15.43;13.83;;;17.50;99.90;;;;;;5113526;28;20646;-74
2022/10/19 07:03:31;;;;;;;17.77;16.00;;;17.40;99.90;;;;;;5113436;28;20411;-74
2022/10/19 07:06:02;;;;;;;14.60;12.97;;;17.40;99.90;;;;;;5113216;28;20467;-72
2022/10/19 07:08:29;;;;;;;15.97;14.03;;;17.30;99.90;;;;;;5113291;28;20311;-72
2022/10/19 07:10:57;;;;;;;17.57;14.73;;;17.50;99.90;;;;;;5112505;28;20920;-72
2022/10/19 07:13:23;;;;;;;18.60;14.33;;;17.60;99.90;;;;;;5113306;28;20905;-72
2022/10/19 07:15:54;;;;;;;16.43;14.73;;;17.80;99.90;;;;;;5112775;28;20409;-73
2022/10/19 07:18:20;;;;;;;14.87;13.37;;;17.80;99.90;;;;;;5112966;28;20458;-71
2022/10/19 07:20:53;;;;;;;15.90;12.53;;;17.80;99.90;;;;;;5113333;28;20548;-72
2022/10/19 07:23:19;;;;;;;18.20;13.27;;;17.70;99.90;;;;;;5112869;28;20610;-73
2022/10/19 07:25:44;;;;;;;14.23;12.73;;;17.50;99.90;;;;;;5112279;28;20410;-72
2022/10/19 07:28:10;;;;;;;12.47;11.17;;;17.30;99.90;;;;;;5112940;28;20168;-72
2022/10/19 07:30:37;;;;;;;14.87;13.23;;;17.20;99.90;;;;;;5112441;28;20176;-73
2022/10/19 07:33:03;;;;;;;12.70;10.83;;;17.30;99.90;;;;;;5112692;28;20572;-71
2022/10/19 07:35:29;;;;;;;12.87;11.57;;;17.20;99.90;;;;;;5112472;28;20413;-72
2022/10/19 07:37:55;;;;;;;14.00;12.70;;;17.30;99.90;;;;;;5112295;28;20431;-73
2022/10/19 07:40:20;;;;;;;15.63;14.13;;;17.20;99.90;;;;;;5110695;28;20180;-73
2022/10/19 07:42:46;;;;;;;15.20;13.60;;;17.00;99.90;;;;;;5112702;28;20165;-73
2022/10/19 07:45:11;;;;;;;15.83;12.83;;;16.90;99.90;;;;;;5104310;28;20317;-73
2022/10/19 07:47:37;;;;;;;15.13;13.57;;;17.00;99.90;;;;;;5091848;28;20327;-70
2022/10/19 07:50:02;;;;;;;17.33;13.03;;;16.80;99.90;;;;;;5091592;28;20218;-70
2022/10/19 07:52:28;;;;;;;15.20;12.50;;;17.00;99.90;;;;;;5091783;28;20173;-69
2022/10/19 07:54:54;;;;;;;14.70;13.00;;;17.00;99.90;;;;;;5091817;28;20252;-70
2022/10/19 07:57:21;;;;;;;13.50;11.93;;;17.00;99.90;;;;;;5091584;28;20522;-71
2022/10/19 07:59:46;;;;;;;12.40;11.20;;;17.00;99.90;;;;;;5092066;28;20161;-74
2022/10/19 08:02:16;;;;;;;12.33;11.17;;;17.00;99.90;;;;;;5091803;28;20529;-70
2022/10/19 08:04:42;;;;;;;13.97;12.57;;;17.00;99.90;;;;;;5091928;28;20169;-70
2022/10/19 08:07:08;;;;;;;16.10;11.37;;;16.80;99.90;;;;;;5091480;28;20435;-71
2022/10/19 08:09:33;;;;;;;14.20;11.10;;;16.90;99.90;;;;;;5091715;28;20426;-71
2022/10/19 08:11:59;;;;;;;12.23;10.80;;;17.20;99.90;;;;;;5109280;28;20270;-70
2022/10/19 08:14:25;;;;;;;12.30;11.10;;;17.10;99.90;;;;;;5112328;28;20179;-71
2022/10/19 08:16:50;;;;;;;15.03;11.43;;;17.20;99.90;;;;;;5112251;28;20658;-71
2022/10/19 08:19:16;;;;;;;12.50;10.80;;;17.40;99.90;;;;;;5112397;28;20165;-70
2022/10/19 08:21:44;;;;;;;14.50;12.33;;;17.90;99.90;;;;;;5112257;28;20563;-73
2022/10/19 08:24:11;;;;;;;12.90;11.53;;;17.90;99.90;;;;;;5093969;28;20169;-72
2022/10/19 08:26:38;;;;;;;11.70;10.50;;;18.10;99.90;;;;;;5111650;28;20430;-72
2022/10/19 08:29:13;;;;;;;13.27;10.90;;;17.90;99.90;;;;;;5112843;28;20868;-73
2022/10/19 08:31:40;;;;;;;10.53;9.20;;;18.00;99.90;;;;;;5112173;28;20383;-73
2022/10/19 08:34:06;;;;;;;13.33;11.33;;;18.00;99.90;;;;;;5112087;28;20415;-72
2022/10/19 08:36:34;;;;;;;10.80;9.80;;;17.80;99.90;;;;;;5112332;28;20429;-73
2022/10/19 08:39:01;;;;;;;11.30;9.70;;;17.90;99.90;;;;;;5112367;28;20169;-73
2022/10/19 08:41:38;;;;;;;11.87;9.57;;;18.00;99.90;;;;;;5111600;28;20446;-71
2022/10/19 08:44:24;;;;;;;10.67;9.13;;;17.80;99.90;;;;;;5098190;28;20644;-72
2022/10/19 08:46:58;;;;;;;11.67;10.57;;;17.80;99.90;;;;;;5084710;28;20415;-73
2022/10/19 08:49:27;;;;;;;13.63;10.00;;;17.80;99.90;;;;;;5091702;28;20444;-73
2022/10/19 08:51:57;;;;;;;12.10;9.70;;;17.80;99.90;;;;;;5091539;28;20809;-74
2022/10/19 08:54:36;;;;;;;10.30;9.20;;;18.00;99.90;;;;;;5091419;28;20391;-73
2022/10/19 08:57:08;;;;;;;10.67;7.83;;;18.10;99.90;;;;;;5091135;28;20505;-72
2022/10/19 08:59:50;;;;;;;13.73;10.23;;;17.70;99.90;;;;;;5091453;28;20456;-70
2022/10/19 09:02:42;;;;;;;10.47;8.00;;;17.80;99.90;;;;;;5094400;28;20842;-72
2022/10/19 09:05:26;;;;;;;11.90;8.87;;;17.70;99.90;;;;;;5095077;28;20399;-73
2022/10/19 09:07:53;;;;;;;11.60;9.07;;;17.90;99.90;;;;;;5076517;28;20451;-73
2022/10/19 09:10:30;;;;;;;10.70;8.20;;;17.80;99.90;;;;;;5098592;28;20814;-73
2022/10/19 09:12:58;;;;;;;9.17;8.27;;;17.30;99.90;;;;;;5115006;28;20387;-72
2022/10/19 09:15:44;;;;;;;9.47;8.40;;;17.50;99.90;;;;;;5115295;28;20437;-73
2022/10/19 09:18:13;;;;;;;8.60;7.70;;;17.50;99.90;;;;;;5115241;28;20416;-73
2022/10/19 09:20:41;;;;;;;8.57;7.77;;;17.60;99.90;;;;;;5115128;28;20513;-71
2022/10/19 09:23:20;;;;;;;10.13;9.13;;;17.80;99.90;;;;;;5115070;28;20457;-74
2022/10/19 09:25:49;;;;;;;10.37;8.60;;;17.80;99.90;;;;;;5114445;28;20702;-71
2022/10/19 09:28:23;;;;;;;9.97;9.07;;;18.00;99.90;;;;;;5115169;28;20422;-71
2022/10/19 09:30:52;;;;;;;11.33;8.73;;;17.80;99.90;;;;;;5115022;28;20405;-72
2022/10/19 09:33:27;;;;;;;11.60;9.30;;;17.80;99.90;;;;;;5115051;28;20414;-73
2022/10/19 09:35:54;;;;;;;8.37;7.53;;;17.70;99.90;;;;;;5114900;28;20383;-71
2022/10/19 09:38:24;;;;;;;9.53;8.63;;;17.90;99.90;;;;;;5092401;28;20399;-70
2022/10/19 09:40:50;;;;;;;8.33;7.63;;;17.90;99.90;;;;;;5101819;28;20482;-71
2022/10/19 09:43:20;;;;;;;7.83;7.00;;;17.80;99.90;;;;;;5114689;28;20409;-71
2022/10/19 09:45:54;;;;;;;9.50;8.53;;;17.80;99.90;;;;;;5114466;28;20157;-71
2022/10/19 09:48:27;;;;;;;9.50;8.47;;;17.20;99.90;;;;;;5114873;28;20421;-71
2022/10/19 09:50:57;;;;;;;9.50;8.50;;;17.20;99.90;;;;;;5114442;28;20550;-71
2022/10/19 09:53:25;;;;;;;9.17;8.27;;;17.20;99.90;;;;;;5114398;28;20406;-69
2022/10/19 09:55:56;;;;;;;10.37;9.10;;;17.10;99.90;;;;;;5113956;28;20493;-69
2022/10/19 09:58:25;;;;;;;9.83;7.53;;;17.10;99.90;;;;;;5114627;28;20398;-71
2022/10/19 10:00:53;;;;;;;8.83;8.03;;;17.20;99.90;;;;;;5095825;28;20461;-71
2022/10/19 10:03:38;;;;;;;7.83;7.23;;;17.40;99.90;;;;;;5114365;28;20965;-70
2022/10/19 10:06:12;;;;;;;7.30;6.57;;;17.50;99.90;;;;;;5114346;28;20474;-70
2022/10/19 10:08:44;;;;;;;6.20;5.70;;;17.60;99.90;;;;;;5103689;22;20520;-73
2022/10/19 10:11:21;;;;;;;7.60;6.90;;;17.70;99.90;;;;;;5073610;28;20412;-73
2022/10/19 10:13:49;;;;;;;5.80;5.30;;;17.60;99.90;;;;;;5074905;28;20438;-72
2022/10/19 10:16:17;;;;;;;7.57;6.87;;;17.40;99.90;;;;;;5074474;28;20485;-73
2022/10/19 10:18:48;;;;;;;6.83;6.10;;;17.40;99.90;;;;;;5073581;28;20805;-72
2022/10/19 10:21:20;;;;;;;6.37;5.67;;;17.40;99.90;;;;;;5074592;28;20443;-72
2022/10/19 10:24:04;;;;;;;6.50;5.90;;;17.70;99.90;;;;;;5074472;28;20468;-72
2022/10/19 10:26:30;;;;;;;5.10;4.60;;;17.90;99.90;;;;;;5074658;28;20894;-73
2022/10/19 10:28:56;;;;;;;5.47;4.97;;;17.80;99.90;;;;;;5074195;28;20801;-72
2022/10/19 10:31:26;;;;;;;6.70;6.10;;;17.60;99.90;;;;;;5072773;28;20420;-73
2022/10/19 10:34:04;;;;;;;6.50;5.73;;;17.80;99.90;;;;;;5074059;28;20628;-72
2022/10/19 10:36:31;;;;;;;6.03;5.43;;;17.70;99.90;;;;;;5074082;28;20405;-74
2022/10/19 10:39:13;;;;;;;8.20;6.50;;;17.80;99.90;;;;;;5074078;28;20906;-74
2022/10/19 10:41:42;;;;;;;7.37;6.60;;;17.90;99.90;;;;;;5073089;28;20546;-76
2022/10/19 10:44:20;;;;;;;6.87;6.23;;;17.90;99.90;;;;;;5074256;28;20400;-74
2022/10/19 10:46:57;;;;;;;10.10;8.53;;;17.90;99.90;;;;;;5074451;28;20384;-75
2022/10/19 10:49:26;;;;;;;7.83;6.23;;;18.10;99.90;;;;;;5074472;28;20419;-75
2022/10/19 10:52:13;;;;;;;5.10;4.33;;;18.30;99.90;;;;;;5074211;28;20392;-75
2022/10/19 10:54:39;;;;;;;5.40;4.63;;;18.50;99.90;;;;;;5055673;28;20929;-75
2022/10/19 10:57:15;;;;;;;4.13;3.73;;;18.30;99.90;;;;;;5055834;28;20450;-73
2022/10/19 10:59:51;;;;;;;4.80;3.47;;;18.40;99.90;;;;;;5073797;28;20850;-76
2022/10/19 11:02:45;;;;;;;5.87;5.10;;;18.60;99.90;;;;;;5073550;28;20472;-76
2022/10/19 11:05:17;;;;;;;7.43;3.57;;;18.70;99.90;;;;;;5073777;28;20387;-76
2022/10/19 11:07:45;;;;;;;4.50;4.10;;;18.60;99.90;;;;;;5055458;28;20440;-75
2022/10/19 11:10:35;;;;;;;4.37;3.90;;;18.50;99.90;;;;;;5072502;28;20431;-73
2022/10/19 11:13:13;;;;;;;3.53;3.13;;;18.70;99.90;;;;;;5073177;28;20401;-75
2022/10/19 11:16:03;;;;;;;3.60;3.30;;;19.30;99.90;;;;;;5073727;28;20392;-74
2022/10/19 11:18:39;;;;;;;4.50;4.10;;;19.60;99.90;;;;;;5055448;28;20853;-75
2022/10/19 11:21:19;;;;;;;3.47;3.17;;;19.70;99.90;;;;;;5073434;28;20428;-74
2022/10/19 11:23:54;;;;;;;3.70;3.40;;;19.50;99.90;;;;;;5072930;28;20384;-75
2022/10/19 11:26:34;;;;;;;4.73;4.00;;;19.40;99.90;;;;;;5071682;28;20424;-73
2022/10/19 11:29:37;;;;;;;6.67;4.20;;;19.40;99.90;;;;;;5072999;28;20897;-72
2022/10/19 11:32:10;;;;;;;4.40;4.00;;;19.20;99.90;;;;;;5073622;28;20875;-74
2022/10/19 11:34:51;;;;;;;4.60;4.20;;;19.00;99.90;;;;;;5073623;28;20384;-75
2022/10/19 11:37:42;;;;;;;4.53;3.97;;;19.30;99.90;;;;;;5072622;28;20439;-75
2022/10/19 11:40:26;;;;;;;6.00;4.87;;;19.30;99.90;;;;;;5055274;28;20491;-73
2022/10/19 11:43:17;;;;;;;5.37;4.00;;;19.40;99.90;;;;;;5071276;28;20481;-74
2022/10/19 11:46:03;;;;;;;5.80;3.77;;;19.50;99.90;;;;;;5073411;28;20391;-74
2022/10/19 11:48:40;;;;;;;5.20;4.47;;;19.50;99.90;;;;;;5073546;28;20458;-73
2022/10/19 11:51:17;;;;;;;7.57;5.67;;;19.50;99.90;;;;;;5073326;28;20508;-75
2022/10/19 11:54:04;;;;;;;4.07;3.70;;;19.30;99.90;;;;;;5072175;28;20419;-73
2022/10/19 11:56:39;;;;;;;5.13;4.73;;;19.30;99.90;;;;;;5073448;28;20399;-73
2022/10/19 11:59:19;;;;;;;4.50;4.10;;;19.20;99.90;;;;;;5073461;28;20380;-74
2022/10/19 12:01:59;;;;;;;5.10;4.40;;;19.10;99.90;;;;;;5073190;28;20722;-73
2022/10/19 12:04:41;;;;;;;3.17;2.87;;;19.20;99.90;;;;;;5072021;28;20503;-73
2022/10/19 12:07:33;;;;;;;3.83;3.43;;;19.20;99.90;;;;;;5071996;28;20504;-73
2022/10/19 12:10:15;;;;;;;3.83;3.53;;;19.40;99.90;;;;;;5072044;28;20412;-72
2022/10/19 12:12:45;;;;;;;5.27;4.43;;;19.80;99.90;;;;;;5073640;28;20471;-74
2022/10/19 12:15:28;;;;;;;5.27;4.33;;;19.60;99.90;;;;;;5072307;28;20420;-73
2022/10/19 12:17:59;;;;;;;5.97;4.80;;;19.50;99.90;;;;;;5073536;28;20428;-74
2022/10/19 12:20:41;;;;;;;5.20;4.67;;;19.40;99.90;;;;;;5054896;28;20434;-73
2022/10/19 12:23:25;;;;;;;5.40;4.50;;;19.60;99.90;;;;;;5072738;28;20759;-72
2022/10/19 12:25:53;;;;;;;5.00;4.40;;;19.70;99.90;;;;;;5074144;28;20875;-74
2022/10/19 12:28:31;;;;;;;5.43;4.90;;;19.90;99.90;;;;;;5073095;28;20420;-74
2022/10/19 12:30:58;;;;;;;4.07;3.67;;;20.00;99.90;;;;;;5073281;28;20415;-73
2022/10/19 12:33:39;;;;;;;4.80;4.40;;;20.30;99.90;;;;;;5073973;28;20427;-73
2022/10/19 12:36:39;;;;;;;5.60;4.93;;;20.20;99.90;;;;;;5057496;28;20408;-72
2022/10/19 12:39:22;;;;;;;4.73;4.33;;;20.20;99.90;;;;;;5077809;28;20428;-72
2022/10/19 12:42:09;;;;;;;5.47;4.97;;;20.00;99.90;;;;;;5058018;28;20854;-71
2022/10/19 12:44:53;;;;;;;5.53;5.13;;;19.70;99.90;;;;;;5076776;28;20400;-73
2022/10/19 12:47:21;;;;;;;5.77;5.20;;;19.80;99.90;;;;;;5076514;28;20420;-72
2022/10/19 12:49:49;;;;;;;6.50;5.30;;;19.70;99.90;;;;;;5076609;28;20400;-73
2022/10/19 12:52:35;;;;;;;5.00;4.60;;;19.70;99.90;;;;;;5077138;28;20412;-76